sensor_id;sensor_type;location;lat;lon;timestamp;P1;durP1;ratioP1;P2;durP2;ratioP2
72797;SDS011;61084;55.816;37.036;2022-10-22T00:00:07;5.78;;;2.35;;
72797;SDS011;61084;55.816;37.036;2022-10-22T00:02:36;4.65;;;2.65;;
72797;SDS011;61084;55.816;37.036;2022-10-22T00:05:02;5.65;;;2.50;;
72797;SDS011;61084;55.816;37.036;2022-10-22T00:07:29;8.77;;;2.42;;
72797;SDS011;61084;55.816;37.036;2022-10-22T00:09:55;4.80;;;2.17;;
72797;SDS011;61084;55.816;37.036;2022-10-22T00:12:20;5.30;;;2.60;;
72797;SDS011;61084;55.816;37.036;2022-10-22T00:14:46;4.13;;;2.60;;
72797;SDS011;61084;55.816;37.036;2022-10-22T00:17:13;5.38;;;2.65;;
72797;SDS011;61084;55.816;37.036;2022-10-22T00:19:39;5.18;;;2.65;;
72797;SDS011;61084;55.816;37.036;2022-10-22T00:22:05;3.63;;;2.30;;
72797;SDS011;61084;55.816;37.036;2022-10-22T00:24:33;4.70;;;2.55;;
72797;SDS011;61084;55.816;37.036;2022-10-22T00:26:59;4.70;;;2.40;;
72797;SDS011;61084;55.816;37.036;2022-10-22T00:29:25;7.22;;;2.20;;
72797;SDS011;61084;55.816;37.036;2022-10-22T00:31:51;5.38;;;2.30;;
72797;SDS011;61084;55.816;37.036;2022-10-22T00:34:18;5.32;;;2.60;;
72797;SDS011;61084;55.816;37.036;2022-10-22T00:36:46;5.80;;;2.35;;
72797;SDS011;61084;55.816;37.036;2022-10-22T00:39:13;5.32;;;3.03;;
72797;SDS011;61084;55.816;37.036;2022-10-22T00:41:41;7.88;;;2.95;;
72797;SDS011;61084;55.816;37.036;2022-10-22T00:44:57;5.43;;;3.17;;
72797;SDS011;61084;55.816;37.036;2022-10-22T00:47:13;5.05;;;2.80;;
72797;SDS011;61084;55.816;37.036;2022-10-22T00:49:40;4.80;;;3.13;;
72797;SDS011;61084;55.816;37.036;2022-10-22T00:52:07;6.43;;;2.85;;
72797;SDS011;61084;55.816;37.036;2022-10-22T00:54:33;5.25;;;2.72;;
72797;SDS011;61084;55.816;37.036;2022-10-22T00:56:59;6.63;;;2.90;;
72797;SDS011;61084;55.816;37.036;2022-10-22T00:59:26;4.68;;;3.00;;
72797;SDS011;61084;55.816;37.036;2022-10-22T01:01:52;5.28;;;3.08;;
72797;SDS011;61084;55.816;37.036;2022-10-22T01:04:18;5.72;;;3.13;;
72797;SDS011;61084;55.816;37.036;2022-10-22T01:06:45;3.60;;;2.65;;
72797;SDS011;61084;55.816;37.036;2022-10-22T01:11:45;4.40;;;3.00;;
72797;SDS011;61084;55.816;37.036;2022-10-22T01:17:22;5.60;;;2.90;;
72797;SDS011;61084;55.816;37.036;2022-10-22T01:20:01;5.72;;;3.28;;
72797;SDS011;61084;55.816;37.036;2022-10-22T01:22:43;4.57;;;2.85;;
72797;SDS011;61084;55.816;37.036;2022-10-22T01:30:19;5.78;;;3.25;;
72797;SDS011;61084;55.816;37.036;2022-10-22T01:32:47;7.68;;;3.53;;
72797;SDS011;61084;55.816;37.036;2022-10-22T01:35:30;8.25;;;3.75;;
72797;SDS011;61084;55.816;37.036;2022-10-22T01:38:00;6.38;;;4.10;;
72797;SDS011;61084;55.816;37.036;2022-10-22T01:40:30;6.88;;;3.55;;
72797;SDS011;61084;55.816;37.036;2022-10-22T01:42:58;8.77;;;3.72;;
72797;SDS011;61084;55.816;37.036;2022-10-22T01:45:34;6.13;;;4.18;;
72797;SDS011;61084;55.816;37.036;2022-10-22T01:50:46;6.28;;;3.58;;
72797;SDS011;61084;55.816;37.036;2022-10-22T01:56:52;6.45;;;3.85;;
72797;SDS011;61084;55.816;37.036;2022-10-22T01:59:53;8.52;;;3.97;;
72797;SDS011;61084;55.816;37.036;2022-10-22T02:07:53;12.35;;;3.97;;
72797;SDS011;61084;55.816;37.036;2022-10-22T02:10:25;6.60;;;3.90;;
72797;SDS011;61084;55.816;37.036;2022-10-22T02:12:52;8.43;;;3.95;;
72797;SDS011;61084;55.816;37.036;2022-10-22T02:18:08;7.43;;;4.15;;
72797;SDS011;61084;55.816;37.036;2022-10-22T02:20:35;6.38;;;3.53;;
72797;SDS011;61084;55.816;37.036;2022-10-22T02:23:03;5.80;;;3.78;;
72797;SDS011;61084;55.816;37.036;2022-10-22T02:25:31;7.97;;;3.97;;
72797;SDS011;61084;55.816;37.036;2022-10-22T02:28:12;5.45;;;3.88;;
72797;SDS011;61084;55.816;37.036;2022-10-22T02:30:54;7.65;;;3.80;;
72797;SDS011;61084;55.816;37.036;2022-10-22T02:33:25;5.70;;;3.78;;
72797;SDS011;61084;55.816;37.036;2022-10-22T02:35:54;6.68;;;4.18;;
72797;SDS011;61084;55.816;37.036;2022-10-22T02:38:22;7.57;;;3.92;;
72797;SDS011;61084;55.816;37.036;2022-10-22T02:40:50;5.47;;;3.75;;
72797;SDS011;61084;55.816;37.036;2022-10-22T02:43:16;8.10;;;4.20;;
72797;SDS011;61084;55.816;37.036;2022-10-22T02:45:43;6.72;;;3.63;;
72797;SDS011;61084;55.816;37.036;2022-10-22T02:48:09;5.57;;;3.65;;
72797;SDS011;61084;55.816;37.036;2022-10-22T02:50:34;7.22;;;3.60;;
72797;SDS011;61084;55.816;37.036;2022-10-22T02:53:01;5.72;;;3.67;;
72797;SDS011;61084;55.816;37.036;2022-10-22T02:55:26;6.40;;;3.83;;
72797;SDS011;61084;55.816;37.036;2022-10-22T02:57:52;6.72;;;3.65;;
72797;SDS011;61084;55.816;37.036;2022-10-22T03:00:19;8.82;;;4.07;;
72797;SDS011;61084;55.816;37.036;2022-10-22T03:02:45;7.93;;;4.13;;
72797;SDS011;61084;55.816;37.036;2022-10-22T03:05:11;6.90;;;3.90;;
72797;SDS011;61084;55.816;37.036;2022-10-22T03:07:37;6.25;;;3.35;;
72797;SDS011;61084;55.816;37.036;2022-10-22T03:10:03;9.82;;;3.90;;
72797;SDS011;61084;55.816;37.036;2022-10-22T03:12:30;6.45;;;3.88;;
72797;SDS011;61084;55.816;37.036;2022-10-22T03:14:56;6.28;;;3.83;;
72797;SDS011;61084;55.816;37.036;2022-10-22T03:17:21;7.82;;;3.65;;
72797;SDS011;61084;55.816;37.036;2022-10-22T03:19:47;7.78;;;3.65;;
72797;SDS011;61084;55.816;37.036;2022-10-22T03:22:21;6.32;;;3.78;;
72797;SDS011;61084;55.816;37.036;2022-10-22T03:24:52;6.88;;;3.85;;
72797;SDS011;61084;55.816;37.036;2022-10-22T03:27:22;5.10;;;3.47;;
72797;SDS011;61084;55.816;37.036;2022-10-22T03:29:53;8.43;;;3.80;;
72797;SDS011;61084;55.816;37.036;2022-10-22T03:32:20;6.47;;;3.97;;
72797;SDS011;61084;55.816;37.036;2022-10-22T03:34:45;6.68;;;3.50;;
72797;SDS011;61084;55.816;37.036;2022-10-22T03:37:11;6.50;;;3.85;;
72797;SDS011;61084;55.816;37.036;2022-10-22T03:39:37;5.93;;;3.40;;
72797;SDS011;61084;55.816;37.036;2022-10-22T03:42:03;6.93;;;3.90;;
72797;SDS011;61084;55.816;37.036;2022-10-22T03:44:31;5.80;;;3.80;;
72797;SDS011;61084;55.816;37.036;2022-10-22T03:46:58;9.57;;;4.53;;
72797;SDS011;61084;55.816;37.036;2022-10-22T03:49:23;6.90;;;3.83;;
72797;SDS011;61084;55.816;37.036;2022-10-22T03:51:49;7.60;;;3.90;;
72797;SDS011;61084;55.816;37.036;2022-10-22T03:54:15;6.80;;;4.05;;
72797;SDS011;61084;55.816;37.036;2022-10-22T03:56:41;6.63;;;4.03;;
72797;SDS011;61084;55.816;37.036;2022-10-22T03:59:07;7.30;;;3.92;;
72797;SDS011;61084;55.816;37.036;2022-10-22T04:01:33;7.28;;;3.97;;
72797;SDS011;61084;55.816;37.036;2022-10-22T04:03:59;8.13;;;4.20;;
72797;SDS011;61084;55.816;37.036;2022-10-22T04:06:24;9.57;;;3.55;;
72797;SDS011;61084;55.816;37.036;2022-10-22T04:08:50;6.35;;;3.92;;
72797;SDS011;61084;55.816;37.036;2022-10-22T04:11:16;7.00;;;4.15;;
72797;SDS011;61084;55.816;37.036;2022-10-22T04:13:42;7.82;;;4.50;;
72797;SDS011;61084;55.816;37.036;2022-10-22T04:16:09;7.93;;;4.50;;
72797;SDS011;61084;55.816;37.036;2022-10-22T04:18:36;9.60;;;4.40;;
72797;SDS011;61084;55.816;37.036;2022-10-22T04:21:03;8.57;;;4.55;;
72797;SDS011;61084;55.816;37.036;2022-10-22T04:23:30;8.25;;;4.35;;
72797;SDS011;61084;55.816;37.036;2022-10-22T04:25:59;7.55;;;4.35;;
72797;SDS011;61084;55.816;37.036;2022-10-22T04:28:27;8.60;;;4.90;;
72797;SDS011;61084;55.816;37.036;2022-10-22T04:30:53;7.65;;;4.22;;
72797;SDS011;61084;55.816;37.036;2022-10-22T04:33:19;7.15;;;4.32;;
72797;SDS011;61084;55.816;37.036;2022-10-22T04:35:45;8.73;;;4.88;;
72797;SDS011;61084;55.816;37.036;2022-10-22T04:38:11;7.97;;;4.68;;
72797;SDS011;61084;55.816;37.036;2022-10-22T04:40:37;8.80;;;4.40;;
72797;SDS011;61084;55.816;37.036;2022-10-22T04:43:03;10.25;;;4.75;;
72797;SDS011;61084;55.816;37.036;2022-10-22T04:45:29;7.78;;;4.38;;
72797;SDS011;61084;55.816;37.036;2022-10-22T04:47:55;8.93;;;4.47;;
72797;SDS011;61084;55.816;37.036;2022-10-22T04:50:21;7.88;;;4.00;;
72797;SDS011;61084;55.816;37.036;2022-10-22T04:52:46;6.55;;;4.10;;
72797;SDS011;61084;55.816;37.036;2022-10-22T04:55:12;8.32;;;4.05;;
72797;SDS011;61084;55.816;37.036;2022-10-22T04:57:38;8.77;;;4.55;;
72797;SDS011;61084;55.816;37.036;2022-10-22T05:00:04;6.75;;;3.97;;
72797;SDS011;61084;55.816;37.036;2022-10-22T05:02:30;8.57;;;4.20;;
72797;SDS011;61084;55.816;37.036;2022-10-22T05:04:56;7.50;;;4.15;;
72797;SDS011;61084;55.816;37.036;2022-10-22T05:07:22;6.13;;;3.75;;
72797;SDS011;61084;55.816;37.036;2022-10-22T05:09:48;7.65;;;3.97;;
72797;SDS011;61084;55.816;37.036;2022-10-22T05:12:14;7.30;;;3.85;;
72797;SDS011;61084;55.816;37.036;2022-10-22T05:14:40;6.45;;;3.95;;
72797;SDS011;61084;55.816;37.036;2022-10-22T05:17:06;6.10;;;3.75;;
72797;SDS011;61084;55.816;37.036;2022-10-22T05:19:32;10.52;;;4.20;;
72797;SDS011;61084;55.816;37.036;2022-10-22T05:21:59;6.28;;;3.83;;
72797;SDS011;61084;55.816;37.036;2022-10-22T05:24:27;6.95;;;4.03;;
72797;SDS011;61084;55.816;37.036;2022-10-22T05:26:54;6.82;;;3.80;;
72797;SDS011;61084;55.816;37.036;2022-10-22T05:29:21;10.05;;;3.85;;
72797;SDS011;61084;55.816;37.036;2022-10-22T05:31:48;6.35;;;3.55;;
72797;SDS011;61084;55.816;37.036;2022-10-22T05:34:14;7.47;;;3.90;;
72797;SDS011;61084;55.816;37.036;2022-10-22T05:36:40;5.78;;;3.75;;
72797;SDS011;61084;55.816;37.036;2022-10-22T05:39:06;7.85;;;3.72;;
72797;SDS011;61084;55.816;37.036;2022-10-22T05:41:33;7.40;;;4.00;;
72797;SDS011;61084;55.816;37.036;2022-10-22T05:44:03;5.57;;;3.47;;
72797;SDS011;61084;55.816;37.036;2022-10-22T05:46:31;7.18;;;4.20;;
72797;SDS011;61084;55.816;37.036;2022-10-22T05:49:00;6.30;;;3.60;;
72797;SDS011;61084;55.816;37.036;2022-10-22T05:51:29;7.05;;;3.92;;
72797;SDS011;61084;55.816;37.036;2022-10-22T05:53:57;6.38;;;3.67;;
72797;SDS011;61084;55.816;37.036;2022-10-22T05:56:24;5.80;;;3.33;;
72797;SDS011;61084;55.816;37.036;2022-10-22T05:58:52;6.78;;;3.55;;
72797;SDS011;61084;55.816;37.036;2022-10-22T06:01:19;6.28;;;3.22;;
72797;SDS011;61084;55.816;37.036;2022-10-22T06:03:51;7.25;;;3.53;;
72797;SDS011;61084;55.816;37.036;2022-10-22T06:06:21;5.65;;;3.63;;
72797;SDS011;61084;55.816;37.036;2022-10-22T06:08:53;7.47;;;3.70;;
72797;SDS011;61084;55.816;37.036;2022-10-22T06:11:20;9.70;;;3.95;;
72797;SDS011;61084;55.816;37.036;2022-10-22T06:13:47;9.15;;;3.88;;
72797;SDS011;61084;55.816;37.036;2022-10-22T06:16:14;5.72;;;3.60;;
72797;SDS011;61084;55.816;37.036;2022-10-22T06:18:40;4.63;;;3.00;;
72797;SDS011;61084;55.816;37.036;2022-10-22T06:21:06;5.03;;;3.30;;
72797;SDS011;61084;55.816;37.036;2022-10-22T06:23:33;5.95;;;3.42;;
72797;SDS011;61084;55.816;37.036;2022-10-22T06:25:59;5.45;;;3.67;;
72797;SDS011;61084;55.816;37.036;2022-10-22T06:28:26;5.90;;;3.42;;
72797;SDS011;61084;55.816;37.036;2022-10-22T06:30:51;6.10;;;3.55;;
72797;SDS011;61084;55.816;37.036;2022-10-22T06:33:17;5.90;;;3.30;;
72797;SDS011;61084;55.816;37.036;2022-10-22T06:35:43;5.68;;;3.47;;
72797;SDS011;61084;55.816;37.036;2022-10-22T06:38:09;8.60;;;4.47;;
72797;SDS011;61084;55.816;37.036;2022-10-22T06:40:37;8.30;;;4.00;;
72797;SDS011;61084;55.816;37.036;2022-10-22T06:43:03;6.05;;;3.50;;
72797;SDS011;61084;55.816;37.036;2022-10-22T06:45:29;5.57;;;3.67;;
72797;SDS011;61084;55.816;37.036;2022-10-22T06:47:55;6.45;;;3.85;;
72797;SDS011;61084;55.816;37.036;2022-10-22T06:50:21;7.47;;;4.20;;
72797;SDS011;61084;55.816;37.036;2022-10-22T06:52:47;7.13;;;3.75;;
72797;SDS011;61084;55.816;37.036;2022-10-22T06:55:12;6.50;;;4.15;;
72797;SDS011;61084;55.816;37.036;2022-10-22T06:57:38;5.75;;;3.88;;
72797;SDS011;61084;55.816;37.036;2022-10-22T07:00:05;8.95;;;4.32;;
72797;SDS011;61084;55.816;37.036;2022-10-22T07:02:31;10.73;;;4.50;;
72797;SDS011;61084;55.816;37.036;2022-10-22T07:04:57;7.78;;;4.38;;
72797;SDS011;61084;55.816;37.036;2022-10-22T07:07:23;7.78;;;4.20;;
72797;SDS011;61084;55.816;37.036;2022-10-22T07:09:49;9.32;;;4.45;;
72797;SDS011;61084;55.816;37.036;2022-10-22T07:12:15;8.07;;;4.45;;
72797;SDS011;61084;55.816;37.036;2022-10-22T07:14:41;10.65;;;4.88;;
72797;SDS011;61084;55.816;37.036;2022-10-22T07:17:08;9.27;;;4.80;;
72797;SDS011;61084;55.816;37.036;2022-10-22T07:19:34;8.50;;;4.45;;
72797;SDS011;61084;55.816;37.036;2022-10-22T07:22:01;8.65;;;4.75;;
72797;SDS011;61084;55.816;37.036;2022-10-22T07:24:27;10.35;;;5.00;;
72797;SDS011;61084;55.816;37.036;2022-10-22T07:26:52;8.30;;;4.38;;
72797;SDS011;61084;55.816;37.036;2022-10-22T07:29:18;9.20;;;4.85;;
72797;SDS011;61084;55.816;37.036;2022-10-22T07:31:44;10.02;;;4.97;;
72797;SDS011;61084;55.816;37.036;2022-10-22T07:34:10;9.20;;;4.45;;
72797;SDS011;61084;55.816;37.036;2022-10-22T07:36:35;9.43;;;4.88;;
72797;SDS011;61084;55.816;37.036;2022-10-22T07:39:02;9.15;;;4.97;;
72797;SDS011;61084;55.816;37.036;2022-10-22T07:41:28;10.35;;;5.80;;
72797;SDS011;61084;55.816;37.036;2022-10-22T07:43:55;9.50;;;5.78;;
72797;SDS011;61084;55.816;37.036;2022-10-22T07:46:22;10.43;;;5.75;;
72797;SDS011;61084;55.816;37.036;2022-10-22T11:06:18;5.53;;;3.55;;
72797;SDS011;61084;55.816;37.036;2022-10-22T11:11:35;4.25;;;2.90;;
72797;SDS011;61084;55.816;37.036;2022-10-22T11:14:10;4.65;;;2.55;;
72797;SDS011;61084;55.816;37.036;2022-10-22T11:16:53;6.22;;;2.80;;
72797;SDS011;61084;55.816;37.036;2022-10-22T11:19:30;6.30;;;2.90;;
72797;SDS011;61084;55.816;37.036;2022-10-22T11:22:30;4.65;;;2.55;;
72797;SDS011;61084;55.816;37.036;2022-10-22T11:27:37;5.28;;;2.85;;
72797;SDS011;61084;55.816;37.036;2022-10-22T11:30:14;6.93;;;2.72;;
72797;SDS011;61084;55.816;37.036;2022-10-22T11:32:43;6.53;;;2.65;;
72797;SDS011;61084;55.816;37.036;2022-10-22T11:35:17;6.38;;;2.70;;
72797;SDS011;61084;55.816;37.036;2022-10-22T11:40:18;3.33;;;2.30;;
72797;SDS011;61084;55.816;37.036;2022-10-22T11:42:52;4.95;;;2.80;;
72797;SDS011;61084;55.816;37.036;2022-10-22T11:45:42;5.13;;;2.30;;
72797;SDS011;61084;55.816;37.036;2022-10-22T11:48:17;6.25;;;2.72;;
72797;SDS011;61084;55.816;37.036;2022-10-22T11:51:27;5.47;;;2.40;;
72797;SDS011;61084;55.816;37.036;2022-10-22T11:53:53;6.28;;;2.95;;
72797;SDS011;61084;55.816;37.036;2022-10-22T11:56:23;4.30;;;2.45;;
72797;SDS011;61084;55.816;37.036;2022-10-22T11:58:51;4.88;;;2.03;;
72797;SDS011;61084;55.816;37.036;2022-10-22T12:01:23;3.80;;;2.38;;
72797;SDS011;61084;55.816;37.036;2022-10-22T12:06:23;5.50;;;2.58;;
72797;SDS011;61084;55.816;37.036;2022-10-22T12:16:43;5.47;;;2.55;;
72797;SDS011;61084;55.816;37.036;2022-10-22T12:19:14;5.60;;;2.88;;
72797;SDS011;61084;55.816;37.036;2022-10-22T12:21:46;3.95;;;2.40;;
72797;SDS011;61084;55.816;37.036;2022-10-22T12:24:14;4.15;;;2.47;;
72797;SDS011;61084;55.816;37.036;2022-10-22T12:26:41;3.22;;;2.30;;
72797;SDS011;61084;55.816;37.036;2022-10-22T12:29:11;4.70;;;2.53;;
72797;SDS011;61084;55.816;37.036;2022-10-22T12:31:40;10.05;;;2.45;;
72797;SDS011;61084;55.816;37.036;2022-10-22T12:34:11;6.25;;;2.78;;
72797;SDS011;61084;55.816;37.036;2022-10-22T12:36:39;4.15;;;2.22;;
72797;SDS011;61084;55.816;37.036;2022-10-22T12:39:12;6.80;;;2.20;;
72797;SDS011;61084;55.816;37.036;2022-10-22T12:41:40;7.22;;;3.22;;
72797;SDS011;61084;55.816;37.036;2022-10-22T12:44:09;3.97;;;2.25;;
72797;SDS011;61084;55.816;37.036;2022-10-22T12:46:37;7.03;;;2.33;;
72797;SDS011;61084;55.816;37.036;2022-10-22T12:49:05;5.90;;;2.58;;
72797;SDS011;61084;55.816;37.036;2022-10-22T12:51:36;6.53;;;2.78;;
72797;SDS011;61084;55.816;37.036;2022-10-22T12:54:05;3.88;;;2.38;;
72797;SDS011;61084;55.816;37.036;2022-10-22T12:56:34;4.40;;;2.60;;
72797;SDS011;61084;55.816;37.036;2022-10-22T12:59:14;4.22;;;2.47;;
72797;SDS011;61084;55.816;37.036;2022-10-22T13:01:45;6.78;;;2.95;;
72797;SDS011;61084;55.816;37.036;2022-10-22T13:04:21;6.68;;;3.10;;
72797;SDS011;61084;55.816;37.036;2022-10-22T13:09:46;9.13;;;2.70;;
72797;SDS011;61084;55.816;37.036;2022-10-22T13:12:24;8.30;;;3.10;;
72797;SDS011;61084;55.816;37.036;2022-10-22T13:14:52;4.32;;;2.33;;
72797;SDS011;61084;55.816;37.036;2022-10-22T13:17:19;4.85;;;3.03;;
72797;SDS011;61084;55.816;37.036;2022-10-22T13:20:04;6.22;;;2.53;;
72797;SDS011;61084;55.816;37.036;2022-10-22T13:25:31;10.55;;;3.45;;
72797;SDS011;61084;55.816;37.036;2022-10-22T13:28:18;8.55;;;3.90;;
72797;SDS011;61084;55.816;37.036;2022-10-22T13:30:53;8.07;;;2.75;;
72797;SDS011;61084;55.816;37.036;2022-10-22T13:33:23;6.22;;;3.15;;
72797;SDS011;61084;55.816;37.036;2022-10-22T13:35:53;8.07;;;3.75;;
72797;SDS011;61084;55.816;37.036;2022-10-22T13:38:21;5.25;;;2.80;;
72797;SDS011;61084;55.816;37.036;2022-10-22T13:40:49;4.47;;;2.40;;
72797;SDS011;61084;55.816;37.036;2022-10-22T13:43:16;6.28;;;3.45;;
72797;SDS011;61084;55.816;37.036;2022-10-22T13:45:43;8.90;;;3.17;;
72797;SDS011;61084;55.816;37.036;2022-10-22T13:48:14;10.68;;;3.22;;
72797;SDS011;61084;55.816;37.036;2022-10-22T13:50:41;7.30;;;2.67;;
72797;SDS011;61084;55.816;37.036;2022-10-22T13:53:14;6.63;;;3.17;;
72797;SDS011;61084;55.816;37.036;2022-10-22T13:55:42;6.18;;;2.90;;
72797;SDS011;61084;55.816;37.036;2022-10-22T13:58:14;8.93;;;3.42;;
72797;SDS011;61084;55.816;37.036;2022-10-22T14:00:44;8.68;;;3.70;;
72797;SDS011;61084;55.816;37.036;2022-10-22T14:03:16;12.25;;;3.40;;
72797;SDS011;61084;55.816;37.036;2022-10-22T14:05:44;8.77;;;3.30;;
72797;SDS011;61084;55.816;37.036;2022-10-22T14:08:13;9.30;;;3.50;;
72797;SDS011;61084;55.816;37.036;2022-10-22T14:10:40;11.93;;;4.13;;
72797;SDS011;61084;55.816;37.036;2022-10-22T14:13:12;13.48;;;5.47;;
72797;SDS011;61084;55.816;37.036;2022-10-22T14:15:38;13.35;;;4.80;;
72797;SDS011;61084;55.816;37.036;2022-10-22T14:18:06;16.08;;;4.68;;
72797;SDS011;61084;55.816;37.036;2022-10-22T14:20:36;16.02;;;5.22;;
72797;SDS011;61084;55.816;37.036;2022-10-22T14:23:10;13.23;;;5.10;;
72797;SDS011;61084;55.816;37.036;2022-10-22T14:25:43;8.82;;;4.65;;
72797;SDS011;61084;55.816;37.036;2022-10-22T14:28:09;9.68;;;4.45;;
72797;SDS011;61084;55.816;37.036;2022-10-22T14:30:36;8.65;;;4.20;;
72797;SDS011;61084;55.816;37.036;2022-10-22T14:33:13;9.88;;;4.13;;
72797;SDS011;61084;55.816;37.036;2022-10-22T14:35:47;13.07;;;4.20;;
72797;SDS011;61084;55.816;37.036;2022-10-22T14:38:14;17.52;;;4.55;;
72797;SDS011;61084;55.816;37.036;2022-10-22T14:40:40;9.13;;;4.03;;
72797;SDS011;61084;55.816;37.036;2022-10-22T14:43:11;9.27;;;4.22;;
72797;SDS011;61084;55.816;37.036;2022-10-22T14:45:44;12.23;;;3.90;;
72797;SDS011;61084;55.816;37.036;2022-10-22T14:48:10;11.07;;;3.72;;
72797;SDS011;61084;55.816;37.036;2022-10-22T14:50:35;10.45;;;4.13;;
72797;SDS011;61084;55.816;37.036;2022-10-22T14:53:01;10.45;;;4.07;;
72797;SDS011;61084;55.816;37.036;2022-10-22T14:55:27;9.32;;;3.72;;
72797;SDS011;61084;55.816;37.036;2022-10-22T14:57:53;13.10;;;4.07;;
72797;SDS011;61084;55.816;37.036;2022-10-22T15:00:19;14.68;;;4.18;;
72797;SDS011;61084;55.816;37.036;2022-10-22T15:02:46;10.27;;;4.15;;
72797;SDS011;61084;55.816;37.036;2022-10-22T15:05:12;11.02;;;4.40;;
72797;SDS011;61084;55.816;37.036;2022-10-22T15:07:39;8.05;;;3.90;;
72797;SDS011;61084;55.816;37.036;2022-10-22T15:10:06;10.13;;;4.45;;
72797;SDS011;61084;55.816;37.036;2022-10-22T15:12:32;11.07;;;4.30;;
72797;SDS011;61084;55.816;37.036;2022-10-22T15:14:58;10.82;;;4.68;;
72797;SDS011;61084;55.816;37.036;2022-10-22T15:17:24;16.13;;;5.03;;
72797;SDS011;61084;55.816;37.036;2022-10-22T15:19:50;11.55;;;4.63;;
72797;SDS011;61084;55.816;37.036;2022-10-22T15:22:17;9.43;;;4.43;;
72797;SDS011;61084;55.816;37.036;2022-10-22T15:24:43;10.30;;;4.40;;
72797;SDS011;61084;55.816;37.036;2022-10-22T15:27:12;9.57;;;4.38;;
72797;SDS011;61084;55.816;37.036;2022-10-22T15:29:39;11.05;;;4.28;;
72797;SDS011;61084;55.816;37.036;2022-10-22T15:34:35;12.50;;;4.90;;
72797;SDS011;61084;55.816;37.036;2022-10-22T15:39:28;10.73;;;4.88;;
72797;SDS011;61084;55.816;37.036;2022-10-22T15:41:54;13.30;;;4.43;;
72797;SDS011;61084;55.816;37.036;2022-10-22T15:44:22;12.48;;;5.50;;
72797;SDS011;61084;55.816;37.036;2022-10-22T15:46:49;16.02;;;5.53;;
72797;SDS011;61084;55.816;37.036;2022-10-22T15:49:16;12.07;;;4.35;;
72797;SDS011;61084;55.816;37.036;2022-10-22T15:54:12;12.55;;;5.63;;
72797;SDS011;61084;55.816;37.036;2022-10-22T15:56:40;12.77;;;6.07;;
72797;SDS011;61084;55.816;37.036;2022-10-22T15:59:06;14.88;;;5.90;;
72797;SDS011;61084;55.816;37.036;2022-10-22T16:01:34;15.63;;;5.85;;
72797;SDS011;61084;55.816;37.036;2022-10-22T16:03:59;19.13;;;5.43;;
72797;SDS011;61084;55.816;37.036;2022-10-22T16:06:30;11.10;;;5.18;;
72797;SDS011;61084;55.816;37.036;2022-10-22T16:08:58;14.30;;;5.55;;
72797;SDS011;61084;55.816;37.036;2022-10-22T16:11:26;12.73;;;5.20;;
72797;SDS011;61084;55.816;37.036;2022-10-22T16:13:53;12.38;;;5.93;;
72797;SDS011;61084;55.816;37.036;2022-10-22T16:16:22;15.38;;;5.53;;
72797;SDS011;61084;55.816;37.036;2022-10-22T16:18:49;17.00;;;5.13;;
72797;SDS011;61084;55.816;37.036;2022-10-22T16:21:16;11.88;;;4.95;;
72797;SDS011;61084;55.816;37.036;2022-10-22T16:23:42;17.58;;;6.50;;
72797;SDS011;61084;55.816;37.036;2022-10-22T16:26:08;16.95;;;6.57;;
72797;SDS011;61084;55.816;37.036;2022-10-22T16:28:34;9.40;;;5.07;;
72797;SDS011;61084;55.816;37.036;2022-10-22T16:31:01;13.82;;;6.13;;
72797;SDS011;61084;55.816;37.036;2022-10-22T16:33:29;16.30;;;5.72;;
72797;SDS011;61084;55.816;37.036;2022-10-22T16:35:55;14.75;;;5.18;;
72797;SDS011;61084;55.816;37.036;2022-10-22T16:38:21;9.23;;;5.13;;
72797;SDS011;61084;55.816;37.036;2022-10-22T16:40:47;10.25;;;4.47;;
72797;SDS011;61084;55.816;37.036;2022-10-22T16:43:13;15.20;;;6.13;;
72797;SDS011;61084;55.816;37.036;2022-10-22T16:45:45;11.80;;;5.07;;
72797;SDS011;61084;55.816;37.036;2022-10-22T16:48:12;7.70;;;4.35;;
72797;SDS011;61084;55.816;37.036;2022-10-22T16:50:38;11.80;;;5.22;;
72797;SDS011;61084;55.816;37.036;2022-10-22T16:53:03;12.60;;;5.32;;
72797;SDS011;61084;55.816;37.036;2022-10-22T16:55:29;10.45;;;4.63;;
72797;SDS011;61084;55.816;37.036;2022-10-22T16:57:55;11.57;;;5.55;;
72797;SDS011;61084;55.816;37.036;2022-10-22T17:00:21;12.10;;;4.82;;
72797;SDS011;61084;55.816;37.036;2022-10-22T17:02:50;14.63;;;6.00;;
72797;SDS011;61084;55.816;37.036;2022-10-22T17:05:17;12.07;;;5.18;;
72797;SDS011;61084;55.816;37.036;2022-10-22T17:07:43;14.02;;;5.53;;
72797;SDS011;61084;55.816;37.036;2022-10-22T17:10:09;11.63;;;6.03;;
72797;SDS011;61084;55.816;37.036;2022-10-22T17:12:34;13.40;;;5.57;;
72797;SDS011;61084;55.816;37.036;2022-10-22T17:15:01;11.32;;;5.43;;
72797;SDS011;61084;55.816;37.036;2022-10-22T17:17:29;9.75;;;5.35;;
72797;SDS011;61084;55.816;37.036;2022-10-22T17:19:55;13.55;;;5.10;;
72797;SDS011;61084;55.816;37.036;2022-10-22T17:22:21;17.75;;;6.65;;
72797;SDS011;61084;55.816;37.036;2022-10-22T17:24:47;13.75;;;6.32;;
72797;SDS011;61084;55.816;37.036;2022-10-22T17:27:33;16.92;;;7.65;;
72797;SDS011;61084;55.816;37.036;2022-10-22T17:29:59;14.80;;;6.32;;
72797;SDS011;61084;55.816;37.036;2022-10-22T17:32:25;15.80;;;6.80;;
72797;SDS011;61084;55.816;37.036;2022-10-22T17:34:51;20.42;;;7.28;;
72797;SDS011;61084;55.816;37.036;2022-10-22T17:37:17;24.25;;;8.73;;
72797;SDS011;61084;55.816;37.036;2022-10-22T17:39:43;21.70;;;8.07;;
72797;SDS011;61084;55.816;37.036;2022-10-22T17:42:09;20.60;;;7.93;;
72797;SDS011;61084;55.816;37.036;2022-10-22T17:44:35;17.42;;;6.68;;
72797;SDS011;61084;55.816;37.036;2022-10-22T17:47:01;15.40;;;7.25;;
72797;SDS011;61084;55.816;37.036;2022-10-22T17:49:28;18.83;;;7.50;;
72797;SDS011;61084;55.816;37.036;2022-10-22T17:51:55;17.17;;;8.63;;
72797;SDS011;61084;55.816;37.036;2022-10-22T17:54:21;20.88;;;7.97;;
72797;SDS011;61084;55.816;37.036;2022-10-22T17:56:47;18.27;;;7.90;;
72797;SDS011;61084;55.816;37.036;2022-10-22T17:59:13;17.38;;;8.15;;
72797;SDS011;61084;55.816;37.036;2022-10-22T18:01:40;15.13;;;7.30;;
72797;SDS011;61084;55.816;37.036;2022-10-22T18:04:10;17.90;;;7.28;;
72797;SDS011;61084;55.816;37.036;2022-10-22T18:06:38;14.82;;;7.50;;
72797;SDS011;61084;55.816;37.036;2022-10-22T18:09:05;14.77;;;7.47;;
72797;SDS011;61084;55.816;37.036;2022-10-22T18:11:32;16.33;;;7.25;;
72797;SDS011;61084;55.816;37.036;2022-10-22T18:14:01;13.25;;;7.68;;
72797;SDS011;61084;55.816;37.036;2022-10-22T18:16:27;13.95;;;7.05;;
72797;SDS011;61084;55.816;37.036;2022-10-22T18:18:53;13.52;;;6.35;;
72797;SDS011;61084;55.816;37.036;2022-10-22T18:21:21;14.93;;;8.15;;
72797;SDS011;61084;55.816;37.036;2022-10-22T18:23:49;14.75;;;8.18;;
72797;SDS011;61084;55.816;37.036;2022-10-22T18:28:42;11.27;;;6.38;;
72797;SDS011;61084;55.816;37.036;2022-10-22T18:31:09;13.55;;;7.18;;
72797;SDS011;61084;55.816;37.036;2022-10-22T18:33:38;12.35;;;7.35;;
72797;SDS011;61084;55.816;37.036;2022-10-22T18:36:05;17.30;;;7.50;;
72797;SDS011;61084;55.816;37.036;2022-10-22T18:38:33;11.77;;;6.90;;
72797;SDS011;61084;55.816;37.036;2022-10-22T18:41:00;14.75;;;8.10;;
72797;SDS011;61084;55.816;37.036;2022-10-22T18:43:26;14.73;;;7.90;;
72797;SDS011;61084;55.816;37.036;2022-10-22T18:45:51;17.45;;;7.82;;
72797;SDS011;61084;55.816;37.036;2022-10-22T18:48:18;13.07;;;7.60;;
72797;SDS011;61084;55.816;37.036;2022-10-22T18:50:47;17.88;;;8.15;;
72797;SDS011;61084;55.816;37.036;2022-10-22T18:53:32;19.77;;;7.93;;